Terminal Aerodrome Forecast
Issued by NWS

Home | Current Version | Previous Version | Text Only | Print | Product List | Glossary On
Versions: 1 2 3 4 5 6 7 8 9 10 11 12 13 14 15 16 17 18 19 20 21 22 23 24 25
455
FTUS44 KLIX 232337
TAFGPT
TAF
KGPT 232337Z 2400/2424 16005KT P6SM FEW150
     FM240600 16006KT P6SM FEW020
     FM240800 17005KT 2SM BR BKN015
     FM241500 18006KT P6SM SCT035
     FM241900 19010KT P6SM SCT060=

USA.gov is the U.S. government's official web portal to all federal, state and local government web resources and services.